createdAt,value
2023-06-08T00:01:44.910Z,17.20
2023-06-08T00:09:05.916Z,16.99
2023-06-08T00:16:24.974Z,17.39
2023-06-08T00:23:43.524Z,17.19
2023-06-08T00:31:03.909Z,17.08
2023-06-08T00:38:22.110Z,16.97
2023-06-08T00:45:41.154Z,16.56
2023-06-08T00:53:02.239Z,16.46
2023-06-08T01:00:21.643Z,16.28
2023-06-08T01:07:50.984Z,16.04
2023-06-08T01:15:16.425Z,16.08
2023-06-08T01:22:46.109Z,16.04
2023-06-08T01:30:06.340Z,15.97
2023-06-08T01:37:27.850Z,15.93
2023-06-08T01:44:47.709Z,15.51
2023-06-08T01:52:09.811Z,15.12
2023-06-08T01:59:29.457Z,14.90
2023-06-08T02:06:48.299Z,15.01
2023-06-08T02:14:08.338Z,15.18
2023-06-08T02:21:28.290Z,15.62
2023-06-08T02:28:46.540Z,15.65
2023-06-08T02:36:07.422Z,15.58
2023-06-08T02:43:25.926Z,15.49
2023-06-08T02:50:45.207Z,15.50
2023-06-08T02:58:05.221Z,15.31
2023-06-08T03:05:25.791Z,15.40
2023-06-08T03:12:45.919Z,15.76
2023-06-08T03:20:07.175Z,16.39
2023-06-08T03:27:30.158Z,16.69
2023-06-08T03:34:53.776Z,15.93
2023-06-08T03:42:16.280Z,15.53
2023-06-08T03:49:37.216Z,15.51
2023-06-08T03:56:57.161Z,15.52
2023-06-08T04:04:19.506Z,15.68
2023-06-08T04:11:38.615Z,15.94
2023-06-08T04:18:58.534Z,17.80
2023-06-08T04:26:25.356Z,19.68
2023-06-08T04:33:45.742Z,20.50
2023-06-08T04:41:09.246Z,21.33
2023-06-08T04:48:30.026Z,22.63
2023-06-08T04:55:49.031Z,22.43
2023-06-08T05:03:07.632Z,23.01
2023-06-08T05:10:28.088Z,23.24
2023-06-08T05:17:46.479Z,23.37
2023-06-08T05:25:05.895Z,23.45
2023-06-08T05:32:26.588Z,24.06
2023-06-08T05:39:45.599Z,24.06
2023-06-08T05:47:04.526Z,24.11
2023-06-08T05:54:24.064Z,23.92
2023-06-08T06:01:42.149Z,24.38
2023-06-08T06:09:00.489Z,24.79
2023-06-08T06:16:23.166Z,24.50
2023-06-08T06:23:41.505Z,24.98
2023-06-08T06:31:00.936Z,25.33
2023-06-08T06:38:22.668Z,25.79
2023-06-08T06:45:42.058Z,26.57
2023-06-08T06:53:01.112Z,26.35
2023-06-08T07:00:23.854Z,26.72
2023-06-08T07:07:43.608Z,26.78
2023-06-08T07:15:01.933Z,26.87
2023-06-08T07:22:25.869Z,26.96
2023-06-08T07:30:00.457Z,27.26
2023-06-08T07:37:18.675Z,28.14
2023-06-08T07:44:38.625Z,28.54
2023-06-08T07:51:58.310Z,28.91
2023-06-08T07:59:16.502Z,28.75
2023-06-08T08:06:36.973Z,28.69
2023-06-08T08:13:55.129Z,29.09
2023-06-08T08:21:13.359Z,29.39
2023-06-08T08:28:34.778Z,28.85
2023-06-08T08:35:53.218Z,29.00
2023-06-08T08:43:13.186Z,29.25
2023-06-08T08:50:35.451Z,29.42
2023-06-08T08:57:54.860Z,30.18
2023-06-08T09:05:13.051Z,29.11
2023-06-08T09:12:41.647Z,29.06
2023-06-08T09:20:01.011Z,29.23
2023-06-08T09:27:28.362Z,29.19
2023-06-08T09:34:57.186Z,29.57
2023-06-08T09:42:17.120Z,28.25
2023-06-08T09:49:35.496Z,29.51
2023-06-08T09:56:59.235Z,28.78
2023-06-08T10:04:27.529Z,27.68
2023-06-08T10:11:46.752Z,28.95
2023-06-08T10:19:07.825Z,30.72
2023-06-08T10:26:28.245Z,29.47
2023-06-08T10:33:46.846Z,29.98
2023-06-08T10:41:07.164Z,29.75
2023-06-08T10:48:25.377Z,29.94
2023-06-08T10:55:48.424Z,29.48
2023-06-08T11:03:09.058Z,29.37
2023-06-08T11:10:28.311Z,29.02
2023-06-08T11:17:49.599Z,29.50
2023-06-08T11:25:10.583Z,29.96
2023-06-08T11:32:29.807Z,28.98
2023-06-08T11:39:49.309Z,29.04
2023-06-08T11:47:14.137Z,27.94
2023-06-08T11:54:37.250Z,28.18
2023-06-08T12:02:00.431Z,28.28
2023-06-08T12:09:21.493Z,28.88
2023-06-08T12:16:45.809Z,29.34
2023-06-08T12:24:04.874Z,29.99
2023-06-08T12:31:24.670Z,28.71
2023-06-08T12:38:42.993Z,28.65
2023-06-08T12:46:02.846Z,29.34
2023-06-08T12:53:22.593Z,29.29
2023-06-08T13:00:41.710Z,29.10
2023-06-08T13:08:08.324Z,27.98
2023-06-08T13:15:27.995Z,28.22
2023-06-08T13:22:48.446Z,28.22
2023-06-08T13:30:09.653Z,28.78
2023-06-08T13:37:30.401Z,28.96
2023-06-08T13:44:49.461Z,28.49
2023-06-08T13:52:09.570Z,28.30
2023-06-08T13:59:30.966Z,28.85
2023-06-08T14:06:49.284Z,27.85
2023-06-08T14:14:08.145Z,27.85
2023-06-08T14:21:28.041Z,27.75
2023-06-08T14:28:46.216Z,27.71
2023-06-08T14:36:04.562Z,27.83
2023-06-08T14:43:24.716Z,27.55
2023-06-08T14:50:43.504Z,27.16
2023-06-08T14:58:01.841Z,26.66
2023-06-08T15:05:21.349Z,26.21
2023-06-08T15:12:39.656Z,26.45
2023-06-08T15:19:58.605Z,27.11
2023-06-08T15:27:19.053Z,27.32
2023-06-08T15:34:37.286Z,27.41
2023-06-08T15:41:55.468Z,27.66
2023-06-08T15:49:15.753Z,27.81
2023-06-08T15:56:34.036Z,27.23
2023-06-08T16:03:53.072Z,27.09
2023-06-08T16:11:13.503Z,26.85
2023-06-08T16:18:32.366Z,26.71
2023-06-08T16:25:52.141Z,26.89
2023-06-08T16:33:12.799Z,26.81
2023-06-08T16:40:31.025Z,26.70
2023-06-08T16:47:49.261Z,26.57
2023-06-08T16:55:10.246Z,26.31
2023-06-08T17:02:29.212Z,25.90
2023-06-08T17:09:48.330Z,25.94
2023-06-08T17:17:08.860Z,25.82
2023-06-08T17:24:27.381Z,25.80
2023-06-08T17:31:46.437Z,25.97
2023-06-08T17:39:06.320Z,26.05
2023-06-08T17:46:24.658Z,25.96
2023-06-08T17:53:43.228Z,25.86
2023-06-08T18:01:03.978Z,25.46
2023-06-08T18:08:22.690Z,25.14
2023-06-08T18:15:41.203Z,24.78
2023-06-08T18:23:02.184Z,24.49
2023-06-08T18:30:22.627Z,24.12
2023-06-08T18:37:40.853Z,23.84
2023-06-08T18:45:01.145Z,23.56
2023-06-08T18:52:20.077Z,23.13
2023-06-08T18:59:38.428Z,22.82
2023-06-08T19:06:58.746Z,22.63
2023-06-08T19:14:17.185Z,22.30
2023-06-08T19:21:36.785Z,22.01
2023-06-08T19:28:56.456Z,21.89
2023-06-08T19:36:15.375Z,21.62
2023-06-08T19:43:34.420Z,21.37
2023-06-08T19:50:55.069Z,21.15
2023-06-08T19:58:13.537Z,20.92
2023-06-08T20:05:32.654Z,20.73
2023-06-08T20:12:53.161Z,20.52
2023-06-08T20:20:12.578Z,20.40
2023-06-08T20:27:31.893Z,20.31
2023-06-08T20:34:52.177Z,20.20
2023-06-08T20:42:12.373Z,20.05
2023-06-08T20:49:30.748Z,19.89
2023-06-08T20:56:50.431Z,19.82
2023-06-08T21:04:12.171Z,19.62
2023-06-08T21:11:31.097Z,19.30
2023-06-08T21:18:50.603Z,19.28
2023-06-08T21:26:08.731Z,19.05
2023-06-08T21:33:28.728Z,18.81
2023-06-08T21:40:48.874Z,18.85
2023-06-08T21:48:08.045Z,18.73
2023-06-08T21:55:27.594Z,18.41
2023-06-08T22:02:48.225Z,18.51
2023-06-08T22:10:07.084Z,18.32
2023-06-08T22:17:25.473Z,18.26
2023-06-08T22:24:46.261Z,18.17
2023-06-08T22:32:05.020Z,17.92
2023-06-08T22:39:23.539Z,17.63
2023-06-08T22:46:44.386Z,17.63
2023-06-08T22:54:04.306Z,17.78
2023-06-08T23:01:24.679Z,17.71
2023-06-08T23:08:49.499Z,17.79
2023-06-08T23:16:09.716Z,17.66
2023-06-08T23:23:28.613Z,17.53
2023-06-08T23:30:48.918Z,17.06
2023-06-08T23:38:08.531Z,17.04
2023-06-08T23:45:27.636Z,16.84
2023-06-08T23:52:48.065Z,17.01
